createdAt,value
2022-07-31T00:02:13.590Z,3.30
2022-07-31T00:04:43.460Z,3.47
2022-07-31T00:07:13.277Z,3.50
2022-07-31T00:09:53.194Z,3.50
2022-07-31T00:12:24.972Z,3.70
2022-07-31T00:14:54.911Z,3.60
2022-07-31T00:17:27.301Z,3.03
2022-07-31T00:19:57.171Z,3.58
2022-07-31T00:22:26.994Z,3.63
2022-07-31T00:24:56.849Z,3.47
2022-07-31T00:27:26.831Z,3.95
2022-07-31T00:29:56.617Z,3.83
2022-07-31T00:32:29.258Z,3.83
2022-07-31T00:34:59.179Z,4.28
2022-07-31T00:37:29.043Z,3.75
2022-07-31T00:39:58.854Z,3.72
2022-07-31T00:42:29.641Z,4.50
2022-07-31T00:44:59.432Z,3.33
2022-07-31T00:47:31.935Z,4.28
2022-07-31T00:50:01.837Z,3.92
2022-07-31T00:52:31.777Z,4.57
2022-07-31T00:55:01.671Z,3.83
2022-07-31T00:57:31.549Z,3.72
2022-07-31T01:00:01.378Z,3.97
2022-07-31T01:02:33.882Z,4.03
2022-07-31T01:05:03.755Z,3.90
2022-07-31T01:07:33.696Z,4.28
2022-07-31T01:10:08.795Z,4.20
2022-07-31T01:12:44.699Z,3.90
2022-07-31T01:15:16.357Z,3.60
2022-07-31T01:17:49.717Z,3.50
2022-07-31T01:20:20.202Z,3.47
2022-07-31T01:23:16.296Z,3.40
2022-07-31T01:25:58.900Z,3.55
2022-07-31T01:28:56.469Z,3.65
2022-07-31T01:31:37.052Z,3.97
2022-07-31T01:34:11.487Z,3.85
2022-07-31T01:36:49.847Z,3.70
2022-07-31T01:39:20.402Z,3.40
2022-07-31T01:41:51.370Z,4.10
2022-07-31T01:44:25.115Z,4.00
2022-07-31T01:46:56.222Z,3.88
2022-07-31T01:49:26.693Z,4.05
2022-07-31T01:52:04.280Z,4.50
2022-07-31T01:54:36.391Z,4.47
2022-07-31T01:57:08.868Z,4.93
2022-07-31T01:59:44.861Z,5.25
2022-07-31T02:02:17.705Z,5.03
2022-07-31T02:04:49.739Z,5.50
2022-07-31T02:07:20.788Z,4.43
2022-07-31T02:09:58.057Z,4.50
2022-07-31T02:12:32.284Z,4.53
2022-07-31T02:15:10.676Z,4.47
2022-07-31T02:17:41.355Z,5.00
2022-07-31T02:20:14.181Z,4.97
2022-07-31T02:22:44.227Z,4.88
2022-07-31T02:25:14.161Z,4.80
2022-07-31T02:27:53.922Z,5.47
2022-07-31T02:30:38.530Z,5.25
2022-07-31T02:33:12.799Z,5.85
2022-07-31T02:35:45.760Z,6.03
2022-07-31T02:38:23.223Z,6.55
2022-07-31T02:40:56.988Z,6.28
2022-07-31T02:43:28.112Z,6.60
2022-07-31T02:46:01.425Z,6.47
2022-07-31T02:48:31.689Z,6.78
2022-07-31T02:51:02.076Z,6.88
2022-07-31T02:53:33.270Z,5.75
2022-07-31T02:56:04.706Z,6.53
2022-07-31T02:58:34.869Z,6.22
2022-07-31T03:01:09.090Z,6.05
2022-07-31T03:03:39.142Z,5.85
2022-07-31T03:06:09.085Z,5.50
2022-07-31T03:08:40.307Z,5.40
2022-07-31T03:11:11.503Z,5.63
2022-07-31T03:13:43.641Z,5.65
2022-07-31T03:16:17.278Z,6.03
2022-07-31T03:18:48.286Z,5.97
2022-07-31T03:21:19.197Z,5.45
2022-07-31T03:23:50.108Z,5.35
2022-07-31T03:26:20.616Z,5.55
2022-07-31T03:28:50.466Z,5.70
2022-07-31T03:31:23.118Z,6.03
2022-07-31T03:33:52.943Z,5.63
2022-07-31T03:36:22.818Z,5.15
2022-07-31T03:38:52.990Z,5.18
2022-07-31T03:41:22.885Z,5.70
2022-07-31T03:43:53.374Z,5.25
2022-07-31T03:46:44.950Z,5.20
2022-07-31T03:49:35.306Z,5.40
2022-07-31T03:52:24.298Z,5.10
2022-07-31T03:54:54.475Z,5.35
2022-07-31T03:57:27.009Z,5.45
2022-07-31T04:00:00.178Z,5.55
2022-07-31T04:02:33.431Z,5.47
2022-07-31T04:05:08.056Z,5.32
2022-07-31T04:07:39.721Z,5.40
2022-07-31T04:10:10.915Z,5.32
2022-07-31T04:12:40.980Z,5.55
2022-07-31T04:15:11.594Z,5.22
2022-07-31T04:17:44.154Z,4.65
2022-07-31T04:20:14.330Z,5.85
2022-07-31T04:22:44.281Z,5.10
2022-07-31T04:25:14.174Z,4.85
2022-07-31T04:27:48.279Z,4.85
2022-07-31T04:30:18.799Z,5.30
2022-07-31T04:32:51.376Z,4.75
2022-07-31T04:35:22.167Z,4.95
2022-07-31T04:37:52.075Z,4.93
2022-07-31T04:40:21.905Z,4.80
2022-07-31T04:42:51.765Z,5.05
2022-07-31T04:45:21.719Z,5.10
2022-07-31T04:47:54.190Z,4.70
2022-07-31T04:50:24.262Z,4.90
2022-07-31T04:52:54.163Z,4.50
2022-07-31T04:55:24.317Z,4.40
2022-07-31T04:57:54.166Z,5.07
2022-07-31T05:00:24.905Z,4.80
2022-07-31T05:02:57.355Z,4.70
2022-07-31T05:05:27.146Z,4.80
2022-07-31T05:07:56.964Z,4.90
2022-07-31T05:10:42.063Z,4.47
2022-07-31T05:13:11.893Z,5.20
2022-07-31T05:15:41.652Z,4.68
2022-07-31T05:18:14.205Z,4.75
2022-07-31T05:20:44.048Z,5.03
2022-07-31T05:23:13.833Z,4.95
2022-07-31T05:25:43.696Z,4.63
2022-07-31T05:28:13.484Z,5.03
2022-07-31T05:30:43.366Z,4.82
2022-07-31T05:33:15.795Z,5.15
2022-07-31T05:35:46.243Z,4.70
2022-07-31T05:38:16.031Z,5.70
2022-07-31T05:40:45.891Z,4.63
2022-07-31T05:43:15.727Z,5.05
2022-07-31T05:45:47.009Z,4.57
2022-07-31T05:48:20.109Z,4.80
2022-07-31T05:50:51.396Z,5.07
2022-07-31T05:53:22.105Z,5.10
2022-07-31T05:55:53.155Z,4.78
2022-07-31T05:58:23.575Z,4.40
2022-07-31T06:00:53.473Z,5.13
2022-07-31T06:03:29.563Z,4.75
2022-07-31T06:05:59.665Z,4.60
2022-07-31T06:08:29.507Z,4.97
2022-07-31T06:11:00.059Z,4.95
2022-07-31T06:13:31.215Z,5.15
2022-07-31T06:16:01.144Z,4.38
2022-07-31T06:18:33.741Z,5.40
2022-07-31T06:21:03.537Z,4.57
2022-07-31T06:23:33.376Z,4.70
2022-07-31T06:26:03.448Z,5.15
2022-07-31T06:28:48.160Z,4.78
2022-07-31T06:31:20.571Z,4.25
2022-07-31T06:33:53.301Z,4.72
2022-07-31T06:36:23.181Z,4.65
2022-07-31T06:38:53.095Z,4.35
2022-07-31T06:41:35.394Z,4.15
2022-07-31T06:44:05.778Z,4.18
2022-07-31T06:46:35.585Z,4.13
2022-07-31T06:49:09.544Z,4.25
2022-07-31T06:51:39.716Z,4.50
2022-07-31T06:54:12.137Z,4.07
2022-07-31T06:56:42.406Z,3.80
2022-07-31T06:59:12.957Z,4.05
2022-07-31T07:01:42.869Z,4.00
2022-07-31T07:04:15.332Z,4.07
2022-07-31T07:06:45.340Z,3.75
2022-07-31T07:09:15.161Z,4.22
2022-07-31T07:11:45.015Z,3.92
2022-07-31T07:14:14.855Z,3.60
2022-07-31T07:16:44.748Z,4.30
2022-07-31T07:19:17.531Z,3.33
2022-07-31T07:21:47.484Z,3.58
2022-07-31T07:24:20.025Z,4.18
2022-07-31T07:26:49.850Z,4.25
2022-07-31T07:29:19.775Z,3.85
2022-07-31T07:31:49.867Z,3.65
2022-07-31T07:34:22.299Z,3.70
2022-07-31T07:36:52.536Z,3.58
2022-07-31T07:39:22.771Z,4.00
2022-07-31T07:41:53.375Z,3.80
2022-07-31T07:44:23.191Z,3.88
2022-07-31T07:46:53.048Z,3.50
2022-07-31T07:49:25.576Z,3.55
2022-07-31T07:51:59.660Z,3.13
2022-07-31T07:54:30.345Z,3.40
2022-07-31T07:57:00.125Z,3.70
2022-07-31T07:59:30.313Z,3.53
2022-07-31T08:02:00.116Z,3.53
2022-07-31T08:04:32.563Z,3.40
2022-07-31T08:07:03.781Z,3.38
2022-07-31T08:09:33.825Z,3.47
2022-07-31T08:12:04.174Z,3.20
2022-07-31T08:14:34.145Z,3.25
2022-07-31T08:17:04.174Z,3.38
2022-07-31T08:19:36.675Z,3.40
2022-07-31T08:22:09.182Z,3.30
2022-07-31T08:24:39.039Z,3.30
2022-07-31T08:27:21.588Z,3.45
2022-07-31T08:29:51.511Z,3.40
2022-07-31T08:32:21.894Z,3.28
2022-07-31T08:34:54.698Z,3.55
2022-07-31T08:37:51.761Z,3.15
2022-07-31T08:40:17.790Z,2.92
2022-07-31T08:42:48.356Z,3.30
2022-07-31T08:45:18.206Z,3.28
2022-07-31T08:47:50.675Z,2.90
2022-07-31T08:50:24.102Z,2.58
2022-07-31T08:52:55.387Z,2.38
2022-07-31T08:55:56.655Z,2.72
2022-07-31T08:58:15.914Z,2.70
2022-07-31T09:00:45.823Z,2.90
2022-07-31T09:03:15.787Z,2.80
2022-07-31T09:05:48.225Z,2.50
2022-07-31T09:08:18.727Z,2.58
2022-07-31T09:10:50.288Z,2.38
2022-07-31T09:13:21.756Z,2.70
2022-07-31T09:15:54.069Z,2.80
2022-07-31T09:18:25.195Z,2.30
2022-07-31T09:21:02.475Z,2.20
2022-07-31T09:23:33.324Z,2.45
2022-07-31T09:26:05.527Z,2.60
2022-07-31T09:28:36.637Z,2.50
2022-07-31T09:31:07.759Z,2.60
2022-07-31T09:33:45.175Z,2.80
2022-07-31T09:36:18.215Z,2.30
2022-07-31T09:38:48.416Z,2.40
2022-07-31T09:41:53.595Z,1.80
2022-07-31T09:44:11.057Z,1.77
2022-07-31T09:46:52.946Z,1.98
2022-07-31T09:49:34.300Z,1.65
2022-07-31T09:52:07.330Z,1.67
2022-07-31T09:54:37.163Z,1.60
2022-07-31T09:57:14.339Z,1.88
2022-07-31T09:59:44.460Z,1.80
2022-07-31T10:02:18.115Z,1.73
2022-07-31T10:04:48.407Z,1.85
2022-07-31T10:07:32.429Z,1.90
2022-07-31T10:10:04.147Z,1.90
2022-07-31T10:12:36.240Z,2.08
2022-07-31T10:15:14.397Z,1.98
2022-07-31T10:17:52.175Z,1.92
2022-07-31T10:20:24.320Z,1.90
2022-07-31T10:23:01.743Z,1.60
2022-07-31T10:25:32.749Z,1.50
2022-07-31T10:28:04.052Z,1.60
2022-07-31T10:30:33.951Z,1.60
2022-07-31T10:33:27.812Z,1.27
2022-07-31T10:36:04.226Z,1.50
2022-07-31T10:38:43.354Z,1.67
2022-07-31T10:41:20.303Z,1.60
2022-07-31T10:43:54.077Z,1.42
2022-07-31T10:46:30.290Z,1.20
2022-07-31T10:49:00.682Z,1.52
2022-07-31T10:51:48.235Z,1.45
2022-07-31T10:54:20.949Z,1.40
2022-07-31T10:56:50.804Z,1.50
2022-07-31T10:59:30.729Z,1.58
2022-07-31T11:02:01.543Z,1.60
2022-07-31T11:04:34.613Z,1.60
2022-07-31T11:07:04.740Z,1.27
2022-07-31T11:09:50.711Z,1.50
2022-07-31T11:12:21.961Z,1.60
2022-07-31T11:14:51.768Z,1.33
2022-07-31T11:18:22.428Z,1.40
2022-07-31T11:20:21.491Z,1.67
2022-07-31T11:23:04.743Z,1.83
2022-07-31T11:25:39.015Z,1.42
2022-07-31T11:28:18.905Z,1.90
2022-07-31T11:30:53.392Z,1.33
2022-07-31T11:33:41.979Z,1.38
2022-07-31T11:36:14.274Z,1.73
2022-07-31T11:38:46.908Z,1.42
2022-07-31T11:41:22.817Z,1.60
2022-07-31T11:43:54.680Z,1.45
2022-07-31T11:46:28.701Z,1.27
2022-07-31T11:48:59.808Z,1.52
2022-07-31T11:51:31.054Z,2.35
2022-07-31T11:54:01.102Z,1.77
2022-07-31T11:56:34.014Z,1.50
2022-07-31T11:59:03.842Z,1.50
2022-07-31T12:01:35.643Z,1.38
2022-07-31T12:04:08.801Z,1.38
2022-07-31T12:06:39.933Z,1.60
2022-07-31T12:10:00.954Z,1.42
2022-07-31T12:12:03.581Z,1.52
2022-07-31T12:14:36.043Z,1.37
2022-07-31T12:17:07.599Z,2.22
2022-07-31T12:19:39.070Z,1.52
2022-07-31T12:22:17.218Z,1.80
2022-07-31T12:24:47.990Z,1.33
2022-07-31T12:27:21.172Z,1.38
2022-07-31T12:29:51.047Z,1.80
2022-07-31T12:32:28.042Z,1.52
2022-07-31T12:35:06.141Z,1.60
2022-07-31T12:37:45.829Z,1.60
2022-07-31T12:40:27.011Z,1.55
2022-07-31T12:42:59.965Z,1.27
2022-07-31T12:45:34.956Z,1.50
2022-07-31T12:48:05.573Z,1.38
2022-07-31T12:50:37.081Z,1.38
2022-07-31T12:53:09.759Z,1.52
2022-07-31T12:55:39.682Z,1.50
2022-07-31T12:58:13.033Z,1.65
2022-07-31T13:00:42.989Z,1.60
2022-07-31T13:03:12.803Z,1.40
2022-07-31T13:05:42.734Z,1.30
2022-07-31T13:08:13.173Z,1.35
2022-07-31T13:10:43.047Z,1.20
2022-07-31T13:13:16.061Z,1.33
2022-07-31T13:15:45.875Z,1.48
2022-07-31T13:18:15.889Z,1.38
2022-07-31T13:20:45.815Z,1.40
2022-07-31T13:23:15.608Z,1.50
2022-07-31T13:25:48.223Z,1.40
2022-07-31T13:28:20.902Z,1.42
2022-07-31T13:30:54.928Z,1.15
2022-07-31T13:33:25.115Z,1.50
2022-07-31T13:35:54.993Z,1.40
2022-07-31T13:38:24.891Z,1.40
2022-07-31T13:41:07.265Z,1.20
2022-07-31T13:43:39.669Z,1.40
2022-07-31T13:46:30.248Z,1.35
2022-07-31T13:49:01.988Z,1.40
2022-07-31T13:51:32.577Z,1.20
2022-07-31T13:54:02.465Z,1.20
2022-07-31T13:56:40.976Z,1.23
2022-07-31T13:59:17.492Z,1.10
2022-07-31T14:02:04.615Z,1.35
2022-07-31T14:04:41.212Z,1.13
2022-07-31T14:07:13.259Z,1.00
2022-07-31T14:09:51.416Z,1.50
2022-07-31T14:12:25.473Z,1.40
2022-07-31T14:14:57.893Z,1.27
2022-07-31T14:17:27.757Z,1.38
2022-07-31T14:19:57.599Z,1.50
2022-07-31T14:22:27.409Z,1.30
2022-07-31T14:24:57.264Z,1.42
2022-07-31T14:27:27.103Z,1.75
2022-07-31T14:29:59.690Z,1.30
2022-07-31T14:32:34.271Z,1.45
2022-07-31T14:35:08.148Z,1.52
2022-07-31T14:37:39.031Z,1.67
2022-07-31T14:40:10.442Z,1.42
2022-07-31T14:42:41.667Z,1.33
2022-07-31T14:45:14.783Z,1.50
2022-07-31T14:47:46.382Z,1.20
2022-07-31T14:50:19.743Z,1.50
2022-07-31T14:55:20.995Z,1.42
2022-07-31T14:57:51.805Z,1.30
2022-07-31T15:00:24.447Z,1.20
2022-07-31T15:02:54.361Z,1.33
2022-07-31T15:06:41.511Z,1.30
2022-07-31T15:08:17.217Z,1.45
2022-07-31T15:10:47.067Z,1.58
2022-07-31T15:13:16.958Z,1.40
2022-07-31T15:15:54.771Z,1.67
2022-07-31T15:18:25.162Z,1.60
2022-07-31T15:20:56.606Z,2.13
2022-07-31T15:23:26.552Z,1.60
2022-07-31T15:26:05.999Z,1.50
2022-07-31T15:28:35.861Z,1.40
2022-07-31T15:31:08.874Z,1.73
2022-07-31T15:33:39.141Z,1.50
2022-07-31T15:36:15.010Z,1.58
2022-07-31T15:38:45.186Z,1.20
2022-07-31T15:41:19.046Z,1.30
2022-07-31T15:43:49.317Z,1.50
2022-07-31T15:46:21.764Z,1.50
2022-07-31T15:48:52.207Z,1.40
2022-07-31T15:51:23.555Z,1.55
2022-07-31T15:53:53.554Z,1.40
2022-07-31T15:56:26.371Z,1.50
2022-07-31T15:58:58.984Z,1.70
2022-07-31T16:01:31.458Z,1.50
2022-07-31T16:04:01.411Z,1.35
2022-07-31T16:06:32.205Z,1.35
2022-07-31T16:09:02.762Z,1.50
2022-07-31T16:12:05.232Z,1.80
2022-07-31T16:14:28.431Z,1.48
2022-07-31T16:17:05.811Z,1.63
2022-07-31T16:19:35.832Z,1.85
2022-07-31T16:22:05.701Z,1.60
2022-07-31T16:24:40.894Z,1.50
2022-07-31T16:27:10.767Z,2.90
2022-07-31T16:29:59.908Z,1.70
2022-07-31T16:32:33.672Z,1.60
2022-07-31T16:35:03.631Z,1.90
2022-07-31T16:37:52.350Z,2.10
2022-07-31T16:40:28.682Z,1.60
2022-07-31T16:43:49.662Z,1.80
2022-07-31T16:45:55.038Z,1.60
2022-07-31T16:48:27.600Z,1.60
2022-07-31T16:50:58.045Z,1.75
2022-07-31T16:54:11.251Z,1.60
2022-07-31T16:56:19.893Z,1.40
2022-07-31T16:58:54.230Z,1.88
2022-07-31T17:01:57.509Z,1.50
2022-07-31T17:04:17.275Z,1.77
2022-07-31T17:06:47.318Z,1.60
2022-07-31T17:09:18.534Z,1.67
2022-07-31T17:11:50.669Z,1.70
2022-07-31T17:14:22.224Z,1.98
2022-07-31T17:16:53.435Z,1.63
2022-07-31T17:19:36.674Z,1.50
2022-07-31T17:22:17.977Z,1.95
2022-07-31T17:24:51.243Z,1.88
2022-07-31T17:27:23.396Z,1.83
2022-07-31T17:29:53.537Z,1.60
2022-07-31T17:32:23.349Z,1.90
2022-07-31T17:34:56.080Z,1.75
2022-07-31T17:37:25.932Z,1.85
2022-07-31T17:39:57.879Z,2.00
2022-07-31T17:42:29.036Z,2.10
2022-07-31T17:45:01.741Z,1.67
2022-07-31T17:47:32.192Z,1.60
2022-07-31T17:50:04.641Z,1.63
2022-07-31T17:52:34.509Z,1.67
2022-07-31T17:55:04.311Z,1.65
2022-07-31T17:57:34.244Z,2.30
2022-07-31T18:00:04.187Z,1.90
2022-07-31T18:02:34.251Z,1.70
2022-07-31T18:05:07.179Z,2.28
2022-07-31T18:07:37.755Z,2.00
2022-07-31T18:10:09.206Z,1.48
2022-07-31T18:12:56.701Z,1.63
2022-07-31T18:15:34.584Z,1.55
2022-07-31T18:18:05.975Z,1.67
2022-07-31T18:20:38.583Z,1.48
2022-07-31T18:23:10.104Z,1.50
2022-07-31T18:25:40.750Z,1.40
2022-07-31T18:28:10.810Z,1.55
2022-07-31T18:30:41.815Z,1.27
2022-07-31T18:33:13.777Z,1.20
2022-07-31T18:35:46.521Z,1.33
2022-07-31T18:38:16.375Z,1.50
2022-07-31T18:40:46.292Z,1.70
2022-07-31T18:43:16.211Z,1.40
2022-07-31T18:45:46.186Z,1.80
2022-07-31T18:48:16.134Z,1.23
2022-07-31T18:50:58.700Z,1.30
2022-07-31T18:53:34.054Z,1.30
2022-07-31T18:56:03.890Z,1.10
2022-07-31T18:58:33.829Z,1.30
2022-07-31T19:01:03.803Z,1.27
2022-07-31T19:03:33.665Z,1.50
2022-07-31T19:06:06.669Z,1.42
2022-07-31T19:08:36.514Z,1.30
2022-07-31T19:11:06.643Z,1.15
2022-07-31T19:13:36.695Z,1.35
2022-07-31T19:16:06.893Z,1.45
2022-07-31T19:18:37.706Z,1.52
2022-07-31T19:21:22.907Z,1.42
2022-07-31T19:24:01.081Z,1.23
2022-07-31T19:26:31.076Z,1.40
2022-07-31T19:29:00.920Z,1.50
2022-07-31T19:31:30.781Z,2.63
2022-07-31T19:34:00.644Z,1.40
2022-07-31T19:36:33.173Z,1.52
2022-07-31T19:39:03.073Z,1.35
2022-07-31T19:41:34.324Z,1.38
2022-07-31T19:44:04.161Z,1.80
2022-07-31T19:46:34.040Z,1.40
2022-07-31T19:49:04.168Z,1.40
2022-07-31T19:51:36.616Z,1.50
2022-07-31T19:54:06.562Z,1.70
2022-07-31T19:56:36.531Z,1.75
2022-07-31T19:59:06.394Z,1.50
2022-07-31T20:01:38.927Z,1.63
2022-07-31T20:04:13.103Z,1.38
2022-07-31T20:06:45.614Z,1.63
2022-07-31T20:09:15.516Z,1.80
2022-07-31T20:11:47.028Z,1.58
2022-07-31T20:14:16.975Z,1.50
2022-07-31T20:16:46.788Z,1.50
2022-07-31T20:19:16.623Z,1.42
2022-07-31T20:21:48.990Z,1.60
2022-07-31T20:24:18.845Z,1.38
2022-07-31T20:26:48.711Z,1.30
2022-07-31T20:29:18.504Z,1.63
2022-07-31T20:31:48.369Z,1.65
2022-07-31T20:34:18.500Z,1.60
2022-07-31T20:36:51.099Z,1.40
2022-07-31T20:39:25.797Z,1.35
2022-07-31T20:42:05.733Z,1.27
2022-07-31T20:44:35.893Z,1.20
2022-07-31T20:47:05.861Z,1.40
2022-07-31T20:49:36.092Z,1.20
2022-07-31T20:52:09.778Z,1.58
2022-07-31T20:54:39.646Z,1.30
2022-07-31T20:57:09.474Z,1.15
2022-07-31T20:59:39.377Z,1.30
2022-07-31T21:02:09.582Z,1.40
2022-07-31T21:04:39.493Z,1.20
2022-07-31T21:07:11.882Z,1.30
2022-07-31T21:09:42.865Z,1.27
2022-07-31T21:12:12.737Z,1.25
2022-07-31T21:14:42.645Z,1.23
2022-07-31T21:17:12.581Z,1.50
2022-07-31T21:19:42.422Z,1.52
2022-07-31T21:22:14.894Z,1.70
2022-07-31T21:24:45.296Z,2.00
2022-07-31T21:27:18.453Z,1.80
2022-07-31T21:29:56.822Z,1.93
2022-07-31T21:32:27.888Z,1.50
2022-07-31T21:34:58.526Z,2.08
2022-07-31T21:37:39.277Z,1.80
2022-07-31T21:40:12.395Z,1.83
2022-07-31T21:42:43.507Z,1.70
2022-07-31T21:45:15.079Z,1.67
2022-07-31T21:47:52.351Z,1.80
2022-07-31T21:50:29.021Z,1.77
2022-07-31T21:53:04.579Z,1.77
2022-07-31T21:55:36.986Z,1.80
2022-07-31T21:58:07.545Z,1.70
2022-07-31T22:00:42.073Z,1.52
2022-07-31T22:03:12.273Z,1.90
2022-07-31T22:05:57.819Z,1.63
2022-07-31T22:08:38.941Z,1.90
2022-07-31T22:11:09.332Z,2.28
2022-07-31T22:13:39.185Z,1.48
2022-07-31T22:16:09.521Z,2.00
2022-07-31T22:18:39.649Z,1.70
2022-07-31T22:21:11.057Z,2.20
2022-07-31T22:23:44.206Z,2.03
2022-07-31T22:26:14.369Z,2.10
2022-07-31T22:28:47.691Z,2.10
2022-07-31T22:31:18.057Z,2.15
2022-07-31T22:33:48.193Z,2.08
2022-07-31T22:36:18.213Z,1.88
2022-07-31T22:38:52.116Z,2.10
2022-07-31T22:41:22.064Z,2.00
2022-07-31T22:44:12.832Z,2.22
2022-07-31T22:46:42.132Z,1.90
2022-07-31T22:49:12.398Z,2.22
2022-07-31T22:51:46.404Z,2.10
2022-07-31T22:54:21.991Z,2.00
2022-07-31T22:56:51.840Z,2.33
2022-07-31T22:59:21.820Z,2.05
2022-07-31T23:01:55.314Z,2.08
2022-07-31T23:04:28.247Z,2.05
2022-07-31T23:06:58.177Z,2.10
2022-07-31T23:09:32.273Z,2.30
2022-07-31T23:14:38.607Z,1.73
2022-07-31T23:17:08.553Z,2.40
2022-07-31T23:19:38.504Z,2.00
2022-07-31T23:22:08.437Z,2.00
2022-07-31T23:24:40.987Z,1.80
2022-07-31T23:27:10.864Z,2.25
2022-07-31T23:29:41.391Z,1.90
2022-07-31T23:32:11.570Z,2.38
2022-07-31T23:34:42.285Z,2.03
2022-07-31T23:37:12.282Z,2.13
2022-07-31T23:39:44.882Z,2.17
2022-07-31T23:42:27.254Z,2.40
2022-07-31T23:44:57.396Z,1.95
2022-07-31T23:47:45.251Z,2.20
2022-07-31T23:50:16.447Z,2.08
2022-07-31T23:52:46.840Z,1.90
2022-07-31T23:55:19.221Z,2.58
2022-07-31T23:57:49.110Z,2.70
